createdAt,value
2022-08-09T00:00:30.257Z,99164.94
2022-08-09T00:02:58.266Z,99161.00
2022-08-09T00:06:15.900Z,99157.38
2022-08-09T00:08:32.486Z,99161.34
2022-08-09T00:11:05.892Z,99163.34
2022-08-09T00:13:51.228Z,99153.75
2022-08-09T00:16:26.515Z,99160.28
2022-08-09T00:19:09.338Z,99164.19
2022-08-09T00:21:38.862Z,99152.84
2022-08-09T00:24:24.249Z,99164.28
2022-08-09T00:26:52.496Z,99162.50
2022-08-09T00:30:09.989Z,99144.16
2022-08-09T00:32:12.589Z,99150.31
2022-08-09T00:34:51.939Z,99153.38
2022-08-09T00:37:20.391Z,99164.13
2022-08-09T00:40:09.338Z,99161.81
2022-08-09T00:44:15.134Z,99157.38
2022-08-09T00:45:29.637Z,99150.34
2022-08-09T00:47:57.706Z,99157.03
2022-08-09T00:50:27.756Z,99159.25
2022-08-09T00:52:56.283Z,99160.78
2022-08-09T00:56:03.766Z,99166.72
2022-08-09T00:58:14.506Z,99161.22
2022-08-09T01:00:45.168Z,99159.09
2022-08-09T01:03:18.105Z,99155.81
2022-08-09T01:05:54.583Z,99156.75
2022-08-09T01:08:31.171Z,99149.34
2022-08-09T01:11:18.411Z,99148.03
2022-08-09T01:13:59.418Z,99139.00
2022-08-09T01:16:35.111Z,99150.75
2022-08-09T01:19:17.210Z,99152.34
2022-08-09T01:22:15.369Z,99147.75
2022-08-09T01:29:01.527Z,99154.28
2022-08-09T01:32:30.906Z,99153.97
2022-08-09T01:35:43.173Z,99144.69
2022-08-09T01:38:54.934Z,99156.28
2022-08-09T01:42:10.930Z,99149.34
2022-08-09T01:45:44.601Z,99158.97
2022-08-09T01:49:10.662Z,99162.28
2022-08-09T01:52:41.421Z,99162.19
2022-08-09T01:55:52.390Z,99173.31
2022-08-09T01:58:55.834Z,99169.97
2022-08-09T02:02:22.981Z,99181.09
2022-08-09T02:05:35.444Z,99173.75
2022-08-09T02:08:58.819Z,99186.03
2022-08-09T02:11:40.360Z,99206.13
2022-08-09T02:14:45.263Z,99185.28
2022-08-09T02:18:00.907Z,99208.09
2022-08-09T02:21:03.451Z,99208.53
2022-08-09T02:24:26.084Z,99219.78
2022-08-09T02:27:27.493Z,99206.00
2022-08-09T02:30:13.414Z,99217.84
2022-08-09T02:33:14.182Z,99200.94
2022-08-09T02:36:23.933Z,99212.63
2022-08-09T02:39:14.407Z,99219.34
2022-08-09T02:42:05.517Z,99209.59
2022-08-09T02:44:51.392Z,99207.56
2022-08-09T02:47:34.022Z,99196.19
2022-08-09T02:50:59.522Z,99201.09
2022-08-09T02:54:19.608Z,99187.38
2022-08-09T02:57:23.477Z,99210.25
2022-08-09T03:00:25.537Z,99203.66
2022-08-09T03:03:37.349Z,99212.34
2022-08-09T03:07:12.509Z,99214.97
2022-08-09T03:10:30.737Z,99196.88
2022-08-09T03:13:43.990Z,99221.34
2022-08-09T03:16:45.339Z,99216.31
2022-08-09T03:20:10.829Z,99207.59
2022-08-09T03:23:24.664Z,99220.41
2022-08-09T03:26:35.167Z,99217.97
2022-08-09T03:29:57.068Z,99211.69
2022-08-09T03:32:43.556Z,99223.94
2022-08-09T03:36:12.401Z,99218.91
2022-08-09T03:39:40.740Z,99222.81
2022-08-09T03:42:47.722Z,99228.56
2022-08-09T03:46:13.747Z,99230.97
2022-08-09T03:49:26.016Z,99231.69
2022-08-09T03:52:53.949Z,99242.19
2022-08-09T03:56:08.264Z,99237.34
2022-08-09T03:58:57.302Z,99232.84
2022-08-09T04:02:00.161Z,99234.00
2022-08-09T04:05:21.024Z,99229.13
2022-08-09T04:08:28.913Z,99229.66
2022-08-09T04:11:24.934Z,99227.00
2022-08-09T04:14:53.157Z,99221.38
2022-08-09T04:17:27.189Z,99229.94
2022-08-09T04:20:29.983Z,99227.97
2022-08-09T04:23:54.192Z,99233.69
2022-08-09T04:27:08.922Z,99227.34
2022-08-09T04:30:11.315Z,99232.03
2022-08-09T04:32:48.189Z,99229.09
2022-08-09T04:35:55.421Z,99234.31
2022-08-09T04:39:14.246Z,99237.13
2022-08-09T04:42:15.987Z,99243.97
2022-08-09T04:44:56.426Z,99240.44
2022-08-09T04:47:59.145Z,99249.75
2022-08-09T04:50:31.902Z,99256.03
2022-08-09T04:53:13.581Z,99256.19
2022-08-09T04:55:59.116Z,99259.00
2022-08-09T04:59:18.712Z,99255.06
2022-08-09T05:02:16.234Z,99260.72
2022-08-09T05:05:52.525Z,99265.31
2022-08-09T05:08:51.720Z,99254.78
2022-08-09T05:11:26.754Z,99256.47
2022-08-09T05:14:26.877Z,99262.25
2022-08-09T05:20:41.195Z,99260.09
2022-08-09T05:23:57.752Z,99283.63
2022-08-09T05:26:22.319Z,99272.28
2022-08-09T05:29:39.609Z,99278.59
2022-08-09T05:32:35.790Z,99270.41
2022-08-09T05:35:26.998Z,99280.56
2022-08-09T05:38:33.134Z,99276.50
2022-08-09T05:41:36.058Z,99275.81
2022-08-09T05:44:35.007Z,99268.53
2022-08-09T05:47:30.264Z,99281.84
2022-08-09T05:50:31.069Z,99281.59
2022-08-09T05:53:32.096Z,99278.22
2022-08-09T05:56:23.182Z,99275.31
2022-08-09T05:59:04.154Z,99283.63
2022-08-09T06:02:00.257Z,99287.53
2022-08-09T06:04:50.970Z,99288.06
2022-08-09T06:08:11.052Z,99294.63
2022-08-09T06:10:45.629Z,99292.25
2022-08-09T06:16:40.794Z,99285.94
2022-08-09T06:19:24.275Z,99300.69
2022-08-09T06:21:58.539Z,99301.09
2022-08-09T06:24:29.795Z,99305.63
2022-08-09T06:27:02.511Z,99306.66
2022-08-09T06:29:48.388Z,99306.06
2022-08-09T06:32:53.364Z,99302.38
2022-08-09T06:35:57.185Z,99308.09
2022-08-09T06:38:37.927Z,99300.91
2022-08-09T06:41:19.141Z,99318.28
2022-08-09T06:44:00.037Z,99304.66
2022-08-09T06:47:00.139Z,99311.69
2022-08-09T06:50:12.168Z,99306.19
2022-08-09T06:52:29.238Z,99305.53
2022-08-09T06:55:10.099Z,99306.19
2022-08-09T06:58:28.497Z,99302.13
2022-08-09T07:01:11.492Z,99304.81
2022-08-09T07:03:52.207Z,99305.78
2022-08-09T07:06:38.783Z,99310.84
2022-08-09T07:09:55.070Z,99305.09
2022-08-09T07:12:22.811Z,99303.84
2022-08-09T07:16:39.460Z,99304.91
2022-08-09T07:18:38.701Z,99306.56
2022-08-09T07:21:12.496Z,99299.94
2022-08-09T07:23:57.692Z,99302.63
2022-08-09T07:26:44.296Z,99302.63
2022-08-09T07:29:37.896Z,99311.81
2022-08-09T07:32:35.149Z,99307.97
2022-08-09T07:35:14.810Z,99306.78
2022-08-09T07:37:49.485Z,99304.63
2022-08-09T07:40:27.835Z,99303.38
2022-08-09T07:43:29.025Z,99301.13
2022-08-09T07:46:06.934Z,99310.16
2022-08-09T07:48:40.652Z,99311.38
2022-08-09T07:52:04.353Z,99311.22
2022-08-09T07:54:28.259Z,99317.41
2022-08-09T07:57:11.620Z,99314.84
2022-08-09T08:00:03.104Z,99320.47
2022-08-09T08:02:37.343Z,99307.25
2022-08-09T08:05:18.839Z,99314.16
2022-08-09T08:09:00.513Z,99314.56
2022-08-09T08:11:03.445Z,99319.59
2022-08-09T08:13:57.788Z,99328.81
2022-08-09T08:16:34.628Z,99322.88
2022-08-09T08:19:08.410Z,99323.41
2022-08-09T08:21:52.659Z,99323.53
2022-08-09T08:24:40.725Z,99311.88
2022-08-09T08:27:16.683Z,99312.91
2022-08-09T08:29:50.394Z,99312.13
2022-08-09T08:32:29.350Z,99309.41
2022-08-09T08:35:04.074Z,99303.63
2022-08-09T08:37:41.095Z,99308.75
2022-08-09T08:40:13.278Z,99309.03
2022-08-09T08:42:43.360Z,99306.22
2022-08-09T08:45:18.072Z,99291.41
2022-08-09T08:48:07.356Z,99298.56
2022-08-09T08:50:39.109Z,99292.13
2022-08-09T08:53:15.712Z,99302.16
2022-08-09T08:55:46.190Z,99301.50
2022-08-09T08:58:17.369Z,99295.25
2022-08-09T09:00:45.966Z,99306.09
2022-08-09T09:03:40.146Z,99301.97
2022-08-09T09:06:21.358Z,99300.69
2022-08-09T09:09:02.222Z,99303.03
2022-08-09T09:12:12.049Z,99300.63
2022-08-09T09:15:06.834Z,99302.22
2022-08-09T09:17:52.792Z,99302.19
2022-08-09T09:20:34.525Z,99300.50
2022-08-09T09:23:09.953Z,99298.16
2022-08-09T09:26:12.238Z,99300.56
2022-08-09T09:29:03.271Z,99296.59
2022-08-09T09:32:03.467Z,99298.25
2022-08-09T09:35:17.853Z,99284.94
2022-08-09T09:38:01.564Z,99275.13
2022-08-09T09:41:02.787Z,99272.91
2022-08-09T09:44:10.608Z,99268.19
2022-08-09T09:46:42.819Z,99264.22
2022-08-09T09:49:13.928Z,99256.00
2022-08-09T09:51:42.851Z,99263.38
2022-08-09T09:54:21.617Z,99255.09
2022-08-09T09:58:04.023Z,99241.00
2022-08-09T09:59:55.644Z,99260.47
2022-08-09T10:02:31.311Z,99252.06
2022-08-09T10:05:14.832Z,99252.53
2022-08-09T10:08:27.832Z,99254.13
2022-08-09T10:11:59.074Z,99260.22
2022-08-09T10:14:38.343Z,99264.75
2022-08-09T10:17:50.217Z,99256.38
2022-08-09T10:20:35.469Z,99258.44
2022-08-09T10:23:36.814Z,99260.22
2022-08-09T10:26:44.645Z,99248.78
2022-08-09T10:30:56.774Z,99255.81
2022-08-09T10:32:49.299Z,99242.19
2022-08-09T10:35:22.991Z,99237.09
2022-08-09T10:38:34.402Z,99220.63
2022-08-09T10:42:00.478Z,99233.88
2022-08-09T10:45:10.621Z,99227.81
2022-08-09T10:48:26.101Z,99228.88
2022-08-09T10:51:13.631Z,99240.13
2022-08-09T10:54:04.755Z,99225.91
2022-08-09T10:56:57.691Z,99225.66
2022-08-09T11:00:01.618Z,99223.44
2022-08-09T11:03:19.538Z,99215.03
2022-08-09T11:06:51.875Z,99230.19
2022-08-09T11:13:53.684Z,99223.19
2022-08-09T11:17:11.654Z,99206.03
2022-08-09T11:20:22.658Z,99216.97
2022-08-09T11:23:39.550Z,99209.88
2022-08-09T11:27:15.985Z,99210.44
2022-08-09T11:30:35.738Z,99199.22
2022-08-09T11:33:51.760Z,99200.19
2022-08-09T11:37:18.648Z,99194.03
2022-08-09T11:40:41.903Z,99187.19
2022-08-09T11:44:10.212Z,99190.28
2022-08-09T11:47:36.750Z,99192.06
2022-08-09T11:51:19.509Z,99190.75
2022-08-09T11:54:59.068Z,99185.84
2022-08-09T11:58:32.322Z,99188.50
2022-08-09T12:02:18.409Z,99186.69
2022-08-09T12:04:47.667Z,99172.81
2022-08-09T12:07:41.512Z,99181.44
2022-08-09T12:10:38.030Z,99179.16
2022-08-09T12:14:09.053Z,99182.50
2022-08-09T12:16:05.477Z,99169.56
2022-08-09T12:19:32.589Z,99182.06
2022-08-09T12:22:41.378Z,99175.81
2022-08-09T12:25:15.606Z,99168.84
2022-08-09T12:29:12.313Z,99165.81
2022-08-09T12:30:36.652Z,99168.44
2022-08-09T12:33:18.539Z,99162.44
2022-08-09T12:35:54.220Z,99167.34
2022-08-09T12:38:37.726Z,99154.63
2022-08-09T12:41:10.080Z,99159.09
2022-08-09T12:44:04.837Z,99154.66
2022-08-09T12:46:37.325Z,99163.88
2022-08-09T12:49:09.724Z,99150.78
2022-08-09T12:52:00.613Z,99146.06
2022-08-09T12:54:31.380Z,99146.38
2022-08-09T12:57:05.996Z,99156.31
2022-08-09T13:00:02.180Z,99157.53
2022-08-09T13:02:57.101Z,99153.72
2022-08-09T13:05:50.842Z,99151.22
2022-08-09T13:08:35.470Z,99146.38
2022-08-09T13:11:23.348Z,99158.53
2022-08-09T13:14:41.540Z,99144.84
2022-08-09T13:16:59.400Z,99142.28
2022-08-09T13:20:10.247Z,99140.19
2022-08-09T13:22:37.765Z,99120.44
2022-08-09T13:25:20.340Z,99134.72
2022-08-09T13:27:55.961Z,99136.22
2022-08-09T13:30:48.839Z,99132.56
2022-08-09T13:33:53.176Z,99131.25
2022-08-09T13:36:38.548Z,99123.41
2022-08-09T13:41:20.954Z,99123.41
2022-08-09T13:42:16.445Z,99126.03
2022-08-09T13:44:49.224Z,99122.13
2022-08-09T13:47:49.603Z,99110.97
2022-08-09T13:51:00.428Z,99110.25
2022-08-09T13:54:18.436Z,99113.91
2022-08-09T13:57:06.405Z,99116.81
2022-08-09T13:59:59.361Z,99107.53
2022-08-09T14:03:16.916Z,99109.81
2022-08-09T14:05:58.313Z,99102.22
2022-08-09T14:08:44.405Z,99107.66
2022-08-09T14:11:47.326Z,99108.41
2022-08-09T14:14:41.559Z,99101.31
2022-08-09T14:18:16.785Z,99099.03
2022-08-09T14:20:54.720Z,99092.25
2022-08-09T14:24:05.535Z,99098.38
2022-08-09T14:26:45.813Z,99094.50
2022-08-09T14:30:18.428Z,99090.84
2022-08-09T14:32:20.026Z,99090.13
2022-08-09T14:34:57.805Z,99078.53
2022-08-09T14:38:01.495Z,99078.97
2022-08-09T14:40:38.750Z,99090.75
2022-08-09T14:43:21.240Z,99084.06
2022-08-09T14:46:46.137Z,99081.16
2022-08-09T14:48:52.944Z,99078.41
2022-08-09T14:51:25.038Z,99085.91
2022-08-09T14:54:08.935Z,99095.69
2022-08-09T14:56:53.648Z,99091.50
2022-08-09T14:59:39.318Z,99095.66
2022-08-09T15:02:16.712Z,99087.41
2022-08-09T15:04:54.042Z,99093.59
2022-08-09T15:07:25.666Z,99087.72
2022-08-09T15:11:00.005Z,99084.59
2022-08-09T15:13:55.824Z,99074.03
2022-08-09T15:16:34.689Z,99079.38
2022-08-09T15:20:02.334Z,99076.38
2022-08-09T15:24:03.724Z,99078.38
2022-08-09T15:26:59.509Z,99080.34
2022-08-09T15:30:48.280Z,99069.34
2022-08-09T15:34:33.408Z,99079.47
2022-08-09T15:37:04.067Z,99072.84
2022-08-09T15:43:50.833Z,99068.22
2022-08-09T15:46:48.771Z,99065.22
2022-08-09T15:50:04.478Z,99064.50
2022-08-09T15:54:04.359Z,99063.81
2022-08-09T15:56:51.116Z,99053.72
2022-08-09T15:59:55.173Z,99058.06
2022-08-09T16:02:54.054Z,99065.78
2022-08-09T16:05:54.796Z,99066.75
2022-08-09T16:09:05.803Z,99056.09
2022-08-09T16:12:01.842Z,99065.03
2022-08-09T16:14:37.164Z,99055.22
2022-08-09T16:17:39.653Z,99048.69
2022-08-09T16:20:30.252Z,99055.03
2022-08-09T16:23:04.332Z,99061.53
2022-08-09T16:25:40.649Z,99062.94
2022-08-09T16:28:34.464Z,99053.41
2022-08-09T16:32:19.422Z,99057.50
2022-08-09T16:34:56.748Z,99042.44
2022-08-09T16:37:53.142Z,99047.78
2022-08-09T16:40:41.532Z,99040.06
2022-08-09T16:43:12.048Z,99035.94
2022-08-09T16:45:53.526Z,99036.13
2022-08-09T16:48:50.566Z,99033.56
2022-08-09T16:51:40.639Z,99049.00
2022-08-09T16:54:34.895Z,99038.94
2022-08-09T16:57:06.388Z,99039.16
2022-08-09T16:59:57.413Z,99039.53
2022-08-09T17:02:46.476Z,99037.47
2022-08-09T17:06:08.046Z,99047.19
2022-08-09T17:09:03.178Z,99040.56
2022-08-09T17:11:42.347Z,99046.28
2022-08-09T17:14:25.326Z,99046.47
2022-08-09T17:17:17.268Z,99043.97
2022-08-09T17:20:32.453Z,99041.97
2022-08-09T17:22:52.228Z,99047.44
2022-08-09T17:25:41.836Z,99051.66
2022-08-09T17:28:11.996Z,99058.13
2022-08-09T17:30:47.618Z,99057.88
2022-08-09T17:35:45.327Z,99013.03
2022-08-09T17:38:38.613Z,99063.47
2022-08-09T17:41:15.436Z,99067.88
2022-08-09T17:43:50.867Z,99063.22
2022-08-09T17:46:55.803Z,99063.69
2022-08-09T17:49:27.210Z,99070.38
2022-08-09T17:52:06.079Z,99070.13
2022-08-09T17:54:52.742Z,99073.00
2022-08-09T17:58:03.378Z,99075.03
2022-08-09T18:00:46.665Z,99078.94
2022-08-09T18:03:18.517Z,99082.41
2022-08-09T18:06:14.773Z,99082.13
2022-08-09T18:08:51.755Z,99084.78
2022-08-09T18:12:20.484Z,99077.25
2022-08-09T18:15:20.617Z,99081.47
2022-08-09T18:18:43.161Z,99088.31
2022-08-09T18:21:54.351Z,99093.53
2022-08-09T18:25:00.071Z,99097.44
2022-08-09T18:30:36.114Z,99104.66
2022-08-09T18:32:09.983Z,99103.59
2022-08-09T18:35:17.419Z,99105.56
2022-08-09T18:38:31.585Z,99109.63
2022-08-09T18:41:07.174Z,99111.88
2022-08-09T18:43:53.683Z,99112.84
2022-08-09T18:46:46.617Z,99118.94
2022-08-09T18:50:18.105Z,99116.56
2022-08-09T18:56:09.720Z,99130.53
2022-08-09T18:59:00.993Z,99129.34
2022-08-09T19:02:01.929Z,99132.38
2022-08-09T19:05:14.267Z,99132.28
2022-08-09T19:08:18.340Z,99140.50
2022-08-09T19:11:00.781Z,99145.56
2022-08-09T19:13:49.987Z,99143.44
2022-08-09T19:16:36.323Z,99149.56
2022-08-09T19:19:25.588Z,99150.16
2022-08-09T19:22:06.854Z,99154.59
2022-08-09T19:25:09.797Z,99147.44
2022-08-09T19:27:45.424Z,99150.78
2022-08-09T19:30:25.205Z,99153.09
2022-08-09T19:33:09.328Z,99155.41
2022-08-09T19:36:05.173Z,99169.47
2022-08-09T19:39:20.559Z,99169.44
2022-08-09T19:42:02.807Z,99169.59
2022-08-09T19:44:43.936Z,99167.63
2022-08-09T19:47:23.854Z,99169.47
2022-08-09T19:50:50.122Z,99175.16
2022-08-09T19:53:45.634Z,99182.06
2022-08-09T19:57:09.329Z,99185.22
2022-08-09T20:00:24.640Z,99188.72
2022-08-09T20:04:18.746Z,99192.41
2022-08-09T20:05:59.600Z,99189.22
2022-08-09T20:08:57.053Z,99189.69
2022-08-09T20:12:07.106Z,99188.03
2022-08-09T20:16:33.877Z,99190.97
2022-08-09T20:18:03.505Z,99194.53
2022-08-09T20:21:17.734Z,99197.66
2022-08-09T20:24:54.143Z,99195.84
2022-08-09T20:28:04.690Z,99197.44
2022-08-09T20:30:38.934Z,99197.66
2022-08-09T20:33:27.663Z,99200.06
2022-08-09T20:36:55.199Z,99202.75
2022-08-09T20:40:15.556Z,99198.28
2022-08-09T20:43:00.421Z,99212.72
2022-08-09T20:46:01.407Z,99205.22
2022-08-09T20:49:27.123Z,99209.22
2022-08-09T20:52:00.568Z,99203.94
2022-08-09T20:54:36.282Z,99208.13
2022-08-09T20:57:32.046Z,99209.88
2022-08-09T21:00:20.962Z,99210.03
2022-08-09T21:02:59.645Z,99212.75
2022-08-09T21:05:56.365Z,99212.97
2022-08-09T21:08:36.646Z,99209.97
2022-08-09T21:14:03.785Z,99208.50
2022-08-09T21:17:02.462Z,99204.94
2022-08-09T21:20:16.104Z,99198.53
2022-08-09T21:22:43.173Z,99201.13
2022-08-09T21:25:44.151Z,99204.81
2022-08-09T21:28:36.306Z,99199.28
2022-08-09T21:31:19.965Z,99203.00
2022-08-09T21:33:52.536Z,99200.88
2022-08-09T21:36:36.741Z,99202.63
2022-08-09T21:39:10.101Z,99199.09
2022-08-09T21:42:00.306Z,99200.34
2022-08-09T21:44:46.542Z,99199.97
2022-08-09T21:47:30.272Z,99204.69
2022-08-09T21:50:01.659Z,99204.94
2022-08-09T21:52:36.893Z,99210.34
2022-08-09T21:55:10.874Z,99208.16
2022-08-09T21:58:02.952Z,99205.09
2022-08-09T22:00:52.317Z,99207.03
2022-08-09T22:03:36.778Z,99199.06
2022-08-09T22:06:59.022Z,99196.47
2022-08-09T22:10:15.575Z,99205.66
2022-08-09T22:12:54.007Z,99198.00
2022-08-09T22:16:04.063Z,99196.13
2022-08-09T22:18:54.185Z,99201.41
2022-08-09T22:22:02.773Z,99212.06
2022-08-09T22:26:04.367Z,99198.22
2022-08-09T22:27:45.145Z,99204.59
2022-08-09T22:30:26.069Z,99199.94
2022-08-09T22:33:09.596Z,99194.69
2022-08-09T22:36:02.717Z,99199.56
2022-08-09T22:38:42.336Z,99196.38
2022-08-09T22:41:14.772Z,99202.94
2022-08-09T22:44:03.093Z,99194.34
2022-08-09T22:48:13.372Z,99197.38
2022-08-09T22:49:41.638Z,99201.56
2022-08-09T22:52:11.282Z,99207.41
2022-08-09T22:54:48.151Z,99202.00
2022-08-09T22:57:35.727Z,99195.88
2022-08-09T23:00:08.175Z,99196.50
2022-08-09T23:02:51.867Z,99203.94
2022-08-09T23:05:45.899Z,99212.84
2022-08-09T23:08:35.121Z,99207.13
2022-08-09T23:11:06.371Z,99203.56
2022-08-09T23:13:42.874Z,99193.97
2022-08-09T23:16:29.814Z,99192.34
2022-08-09T23:19:09.674Z,99185.97
2022-08-09T23:21:44.824Z,99193.41
2022-08-09T23:24:19.828Z,99182.56
2022-08-09T23:27:08.309Z,99172.22
2022-08-09T23:29:47.489Z,99174.66
2022-08-09T23:32:23.421Z,99170.63
2022-08-09T23:34:56.037Z,99182.22
2022-08-09T23:37:28.956Z,99173.50
2022-08-09T23:40:07.715Z,99169.16
2022-08-09T23:42:40.676Z,99163.81
2022-08-09T23:45:37.761Z,99180.00
2022-08-09T23:48:08.705Z,99161.44
2022-08-09T23:50:40.855Z,99162.97
2022-08-09T23:53:20.455Z,99165.59
2022-08-09T23:55:57.323Z,99165.94
2022-08-09T23:58:54.562Z,99170.41
